createdAt,value
2022-10-05T00:02:55.885Z,34.67
2022-10-05T00:05:58.455Z,34.92
2022-10-05T00:09:01.265Z,35.08
2022-10-05T00:12:20.532Z,35.16
2022-10-05T00:15:23.290Z,35.04
2022-10-05T00:18:27.009Z,35.04
2022-10-05T00:21:29.262Z,34.84
2022-10-05T00:24:31.533Z,35.06
2022-10-05T00:27:38.863Z,34.65
2022-10-05T00:30:41.167Z,34.85
2022-10-05T00:33:43.753Z,34.83
2022-10-05T00:36:46.361Z,34.76
2022-10-05T00:39:49.710Z,35.15
2022-10-05T00:42:59.785Z,34.95
2022-10-05T00:46:19.888Z,34.89
2022-10-05T00:49:59.530Z,34.86
2022-10-05T00:53:26.691Z,35.07
2022-10-05T00:56:56.879Z,35.18
2022-10-05T01:00:09.116Z,34.73
2022-10-05T01:03:36.909Z,35.08
2022-10-05T01:07:06.764Z,35.21
2022-10-05T01:10:27.999Z,34.85
2022-10-05T01:13:48.856Z,34.70
2022-10-05T01:17:00.084Z,34.83
2022-10-05T01:20:28.999Z,34.96
2022-10-05T01:23:34.333Z,34.96
2022-10-05T01:26:55.349Z,34.80
2022-10-05T01:30:11.255Z,34.77
2022-10-05T01:33:23.885Z,35.11
2022-10-05T01:37:01.660Z,34.69
2022-10-05T01:40:25.495Z,34.85
2022-10-05T01:43:31.860Z,34.77
2022-10-05T01:46:40.642Z,34.77
2022-10-05T01:49:55.244Z,34.69
2022-10-05T01:53:37.957Z,34.98
2022-10-05T01:56:53.112Z,34.72
2022-10-05T01:59:58.051Z,34.71
2022-10-05T02:03:04.875Z,34.80
2022-10-05T02:06:15.106Z,35.02
2022-10-05T02:09:32.211Z,34.67
2022-10-05T02:12:38.443Z,34.61
2022-10-05T02:15:53.217Z,34.61
2022-10-05T02:19:05.090Z,34.69
2022-10-05T02:22:28.875Z,35.11
2022-10-05T02:25:35.438Z,35.02
2022-10-05T02:28:55.547Z,34.99
2022-10-05T02:32:04.561Z,34.73
2022-10-05T02:35:15.744Z,34.56
2022-10-05T02:38:19.235Z,35.14
2022-10-05T02:41:44.422Z,34.71
2022-10-05T02:45:09.550Z,35.02
2022-10-05T02:48:26.558Z,34.75
2022-10-05T02:51:40.945Z,34.90
2022-10-05T02:54:46.106Z,34.81
2022-10-05T02:58:00.209Z,35.04
2022-10-05T03:01:16.166Z,34.51
2022-10-05T03:04:43.390Z,34.97
2022-10-05T03:07:46.476Z,34.66
2022-10-05T03:10:48.756Z,34.88
2022-10-05T03:14:03.239Z,35.04
2022-10-05T03:17:20.835Z,34.77
2022-10-05T03:20:39.561Z,34.61
2022-10-05T03:24:20.985Z,34.73
2022-10-05T03:27:33.771Z,34.93
2022-10-05T03:30:50.925Z,34.74
2022-10-05T03:34:00.657Z,34.68
2022-10-05T03:37:23.612Z,34.80
2022-10-05T03:40:44.477Z,34.90
2022-10-05T03:43:49.661Z,34.52
2022-10-05T03:47:13.786Z,34.75
2022-10-05T03:50:45.250Z,34.54
2022-10-05T03:54:04.010Z,34.96
2022-10-05T03:57:23.594Z,34.88
2022-10-05T04:00:30.145Z,34.70
2022-10-05T04:03:52.886Z,34.68
2022-10-05T04:06:57.813Z,34.80
2022-10-05T04:10:03.301Z,34.55
2022-10-05T04:13:39.922Z,34.61
2022-10-05T04:16:47.745Z,34.59
2022-10-05T04:20:04.538Z,34.48
2022-10-05T04:23:10.610Z,34.49
2022-10-05T04:26:20.343Z,34.69
2022-10-05T04:29:58.041Z,34.46
2022-10-05T04:33:16.101Z,35.04
2022-10-05T04:41:35.085Z,35.08
2022-10-05T04:45:01.852Z,35.08
2022-10-05T04:48:44.610Z,35.05
2022-10-05T04:52:19.506Z,34.96
2022-10-05T04:55:54.536Z,35.55
2022-10-05T04:59:09.510Z,35.07
2022-10-05T05:02:21.201Z,35.15
2022-10-05T05:06:16.300Z,35.48
2022-10-05T05:09:39.414Z,35.06
2022-10-05T05:12:50.576Z,35.31
2022-10-05T05:16:23.418Z,34.97
2022-10-05T05:19:37.610Z,35.04
2022-10-05T05:23:02.283Z,34.75
2022-10-05T05:27:00.432Z,34.86
2022-10-05T05:30:26.305Z,34.91
2022-10-05T05:33:49.235Z,34.63
2022-10-05T05:37:59.802Z,35.01
2022-10-05T05:41:05.691Z,34.72
2022-10-05T05:44:19.819Z,35.07
2022-10-05T05:52:40.519Z,35.07
2022-10-05T05:55:48.485Z,34.62
2022-10-05T05:59:13.957Z,34.63
2022-10-05T06:02:21.614Z,34.48
2022-10-05T06:05:27.402Z,34.62
2022-10-05T06:08:40.949Z,34.59
2022-10-05T06:12:13.895Z,34.74
2022-10-05T06:15:52.347Z,34.64
2022-10-05T06:19:36.111Z,34.54
2022-10-05T06:22:44.813Z,34.17
2022-10-05T06:26:38.323Z,33.75
2022-10-05T06:29:49.587Z,33.40
2022-10-05T06:33:03.815Z,33.07
2022-10-05T06:36:20.989Z,32.83
2022-10-05T06:39:41.758Z,32.95
2022-10-05T06:43:01.848Z,32.98
2022-10-05T06:46:59.723Z,32.80
2022-10-05T06:50:58.740Z,32.62
2022-10-05T06:54:34.407Z,32.91
2022-10-05T06:57:52.277Z,32.56
2022-10-05T07:01:20.830Z,32.36
2022-10-05T07:04:26.208Z,32.63
2022-10-05T07:07:51.430Z,32.26
2022-10-05T07:11:24.441Z,32.39
2022-10-05T07:14:33.730Z,32.62
2022-10-05T07:17:53.292Z,32.67
2022-10-05T07:21:14.148Z,33.02
2022-10-05T07:24:42.766Z,32.95
2022-10-05T07:28:13.210Z,32.76
2022-10-05T07:31:44.939Z,32.65
2022-10-05T07:34:55.773Z,32.54
2022-10-05T07:38:18.807Z,32.82
2022-10-05T07:41:30.248Z,32.43
2022-10-05T07:44:44.995Z,32.44
2022-10-05T07:48:12.683Z,32.67
2022-10-05T07:51:32.097Z,32.49
2022-10-05T07:54:57.363Z,32.14
2022-10-05T07:58:18.628Z,32.14
2022-10-05T08:01:38.493Z,32.08
2022-10-05T08:05:26.025Z,31.90
2022-10-05T08:09:04.816Z,31.98
2022-10-05T08:12:24.045Z,32.19
2022-10-05T08:15:31.875Z,31.87
2022-10-05T08:18:35.906Z,32.03
2022-10-05T08:21:51.711Z,32.11
2022-10-05T08:25:03.829Z,32.32
2022-10-05T08:32:58.322Z,32.38
2022-10-05T08:36:39.218Z,32.45
2022-10-05T08:40:06.792Z,32.55
2022-10-05T08:43:36.595Z,32.49
2022-10-05T08:47:16.905Z,32.51
2022-10-05T08:50:22.123Z,32.75
2022-10-05T08:53:42.503Z,33.05
2022-10-05T08:57:33.138Z,33.02
2022-10-05T09:01:15.199Z,33.29
2022-10-05T09:04:44.186Z,33.51
2022-10-05T09:08:20.548Z,33.69
2022-10-05T09:11:47.276Z,33.93
2022-10-05T09:15:26.002Z,33.64
2022-10-05T09:19:07.564Z,33.81
2022-10-05T09:23:19.143Z,33.78
2022-10-05T09:27:00.678Z,33.83
2022-10-05T09:30:27.072Z,33.73
2022-10-05T09:33:43.288Z,33.41
2022-10-05T09:36:48.179Z,33.55
2022-10-05T09:40:49.708Z,32.76
2022-10-05T09:44:05.410Z,32.76
2022-10-05T09:47:19.884Z,33.31
2022-10-05T09:50:56.053Z,33.32
2022-10-05T09:58:29.294Z,33.18
2022-10-05T10:01:51.830Z,33.21
2022-10-05T10:05:05.855Z,33.05
2022-10-05T10:09:04.719Z,33.39
2022-10-05T10:12:41.925Z,33.46
2022-10-05T10:21:03.329Z,33.37
2022-10-05T10:24:39.808Z,33.48
2022-10-05T10:32:15.331Z,34.23
2022-10-05T10:35:41.187Z,34.27
2022-10-05T10:39:22.514Z,34.51
2022-10-05T10:42:44.198Z,34.42
2022-10-05T10:45:56.327Z,34.66
2022-10-05T10:49:47.062Z,34.26
2022-10-05T10:53:13.968Z,33.77
2022-10-05T10:56:38.144Z,33.70
2022-10-05T10:59:58.042Z,33.42
2022-10-05T11:03:12.113Z,33.25
2022-10-05T11:06:36.493Z,33.23
2022-10-05T11:10:03.297Z,33.44
2022-10-05T11:13:20.541Z,33.78
2022-10-05T11:16:39.264Z,33.54
2022-10-05T11:20:15.429Z,33.43
2022-10-05T11:23:38.901Z,33.33
2022-10-05T11:31:12.019Z,33.11
2022-10-05T11:35:00.267Z,32.95
2022-10-05T11:38:11.248Z,32.96
2022-10-05T11:41:27.754Z,33.05
2022-10-05T11:45:08.690Z,32.64
2022-10-05T11:48:22.621Z,32.77
2022-10-05T11:51:39.753Z,32.99
2022-10-05T11:55:13.476Z,33.29
2022-10-05T11:58:41.256Z,33.41
2022-10-05T12:02:38.913Z,33.37
2022-10-05T12:06:27.108Z,33.46
2022-10-05T12:10:09.796Z,33.96
2022-10-05T12:13:58.510Z,34.22
2022-10-05T12:17:31.036Z,34.79
2022-10-05T12:21:05.452Z,35.00
2022-10-05T12:24:36.292Z,34.73
2022-10-05T12:27:44.045Z,34.45
2022-10-05T12:31:12.207Z,34.34
2022-10-05T12:34:20.556Z,34.68
2022-10-05T12:37:37.965Z,34.34
2022-10-05T12:40:57.390Z,34.43
2022-10-05T12:44:20.806Z,34.09
2022-10-05T12:47:44.195Z,34.64
2022-10-05T12:50:51.321Z,34.65
2022-10-05T12:54:38.761Z,34.31
2022-10-05T12:57:53.073Z,34.13
2022-10-05T13:01:18.432Z,34.13
2022-10-05T13:04:49.244Z,34.48
2022-10-05T13:08:00.505Z,34.90
2022-10-05T13:11:16.940Z,34.93
2022-10-05T13:14:42.751Z,34.89
2022-10-05T13:18:13.886Z,34.88
2022-10-05T13:21:26.809Z,34.91
2022-10-05T13:24:46.983Z,34.84
2022-10-05T13:28:26.265Z,34.34
2022-10-05T13:31:54.313Z,34.61
2022-10-05T13:35:20.915Z,34.38
2022-10-05T13:38:36.487Z,34.44
2022-10-05T13:41:44.827Z,34.33
2022-10-05T13:45:00.329Z,34.40
2022-10-05T13:48:27.693Z,34.49
2022-10-05T13:51:41.656Z,34.13
2022-10-05T13:54:43.973Z,34.21
2022-10-05T13:58:05.747Z,34.29
2022-10-05T14:01:43.929Z,33.90
2022-10-05T14:04:58.397Z,33.91
2022-10-05T14:08:04.100Z,33.77
2022-10-05T14:11:31.316Z,33.45
2022-10-05T14:14:45.046Z,33.28
2022-10-05T14:17:47.299Z,33.35
2022-10-05T14:21:18.958Z,33.08
2022-10-05T14:24:45.168Z,33.53
2022-10-05T14:27:58.196Z,38.32
2022-10-05T14:31:12.798Z,38.78
2022-10-05T14:34:32.905Z,36.02
2022-10-05T14:37:53.773Z,34.50
2022-10-05T14:41:07.833Z,34.29
2022-10-05T14:44:13.124Z,34.18
2022-10-05T14:47:20.204Z,34.37
2022-10-05T14:50:31.447Z,34.84
2022-10-05T14:53:43.898Z,34.71
2022-10-05T14:56:53.212Z,34.53
2022-10-05T15:00:18.670Z,33.95
2022-10-05T15:03:40.680Z,33.94
2022-10-05T15:07:04.253Z,33.70
2022-10-05T15:10:19.200Z,33.76
2022-10-05T15:13:30.437Z,33.97
2022-10-05T15:16:40.579Z,34.03
2022-10-05T15:20:17.162Z,34.42
2022-10-05T15:23:27.147Z,34.74
2022-10-05T15:26:55.486Z,35.29
2022-10-05T15:30:00.639Z,35.89
2022-10-05T15:33:24.323Z,35.79
2022-10-05T15:36:35.538Z,35.50
2022-10-05T15:39:48.966Z,35.23
2022-10-05T15:42:56.024Z,35.02
2022-10-05T15:46:11.494Z,35.02
2022-10-05T15:49:47.522Z,34.79
2022-10-05T15:53:19.926Z,34.82
2022-10-05T15:56:35.241Z,35.11
2022-10-05T16:00:15.988Z,35.14
2022-10-05T16:03:56.946Z,35.15
2022-10-05T16:07:20.547Z,35.09
2022-10-05T16:10:24.183Z,35.30
2022-10-05T16:13:37.326Z,35.02
2022-10-05T16:17:19.661Z,34.97
2022-10-05T16:20:43.239Z,35.19
2022-10-05T16:23:48.209Z,34.85
2022-10-05T16:26:58.419Z,35.14
2022-10-05T16:30:06.078Z,34.80
2022-10-05T16:33:22.723Z,34.80
2022-10-05T16:36:31.869Z,34.88
2022-10-05T16:39:59.716Z,34.96
2022-10-05T16:43:09.773Z,34.84
2022-10-05T16:46:40.981Z,34.85
2022-10-05T16:50:01.362Z,34.66
2022-10-05T16:53:14.454Z,34.98
2022-10-05T16:56:25.348Z,34.85
2022-10-05T17:00:14.952Z,34.72
2022-10-05T17:03:34.169Z,34.65
2022-10-05T17:07:17.913Z,34.80
2022-10-05T17:10:28.741Z,35.04
2022-10-05T17:13:55.992Z,34.99
2022-10-05T17:17:30.698Z,34.92
2022-10-05T17:20:46.439Z,34.75
2022-10-05T17:24:02.185Z,34.68
2022-10-05T17:27:15.932Z,34.51
2022-10-05T17:30:21.819Z,34.66
2022-10-05T17:33:29.010Z,34.78
2022-10-05T17:36:41.617Z,34.72
2022-10-05T17:39:55.492Z,34.89
2022-10-05T17:43:04.807Z,34.66
2022-10-05T17:46:09.895Z,34.62
2022-10-05T17:50:13.908Z,34.45
2022-10-05T17:53:41.201Z,34.69
2022-10-05T17:56:49.481Z,34.52
2022-10-05T17:59:57.423Z,34.81
2022-10-05T18:03:00.073Z,34.62
2022-10-05T18:06:29.739Z,34.52
2022-10-05T18:09:37.637Z,34.30
2022-10-05T18:13:27.596Z,34.45
2022-10-05T18:16:59.770Z,34.60
2022-10-05T18:20:23.913Z,34.64
2022-10-05T18:23:30.119Z,34.44
2022-10-05T18:26:59.548Z,34.69
2022-10-05T18:30:25.960Z,34.48
2022-10-05T18:33:38.955Z,34.62
2022-10-05T18:37:08.054Z,34.60
2022-10-05T18:40:28.189Z,34.51
2022-10-05T18:43:56.924Z,34.38
2022-10-05T18:47:45.957Z,34.68
2022-10-05T18:51:18.657Z,34.65
2022-10-05T18:54:28.131Z,34.44
2022-10-05T18:57:40.977Z,34.51
2022-10-05T19:01:13.385Z,34.44
2022-10-05T19:04:40.588Z,34.73
2022-10-05T19:07:59.350Z,34.79
2022-10-05T19:11:27.947Z,34.48
2022-10-05T19:14:54.988Z,34.33
2022-10-05T19:18:18.615Z,34.43
2022-10-05T19:21:33.073Z,34.33
2022-10-05T19:24:57.419Z,34.57
2022-10-05T19:28:23.592Z,34.61
2022-10-05T19:31:35.062Z,34.39
2022-10-05T19:35:11.415Z,34.42
2022-10-05T19:38:29.296Z,34.69
2022-10-05T19:42:16.341Z,34.35
2022-10-05T19:45:24.420Z,34.55
2022-10-05T19:48:48.555Z,34.66
2022-10-05T19:51:51.445Z,34.63
2022-10-05T19:55:24.312Z,34.51
2022-10-05T19:58:29.147Z,34.31
2022-10-05T20:01:36.880Z,34.57
2022-10-05T20:04:43.258Z,34.35
2022-10-05T20:07:45.595Z,34.55
2022-10-05T20:11:22.654Z,34.38
2022-10-05T20:14:33.202Z,34.68
2022-10-05T20:17:53.919Z,34.37
2022-10-05T20:20:56.626Z,34.27
2022-10-05T20:24:14.129Z,34.52
2022-10-05T20:27:36.160Z,34.40
2022-10-05T20:30:38.332Z,34.59
2022-10-05T20:33:40.603Z,34.44
2022-10-05T20:36:44.528Z,34.57
2022-10-05T20:39:47.974Z,34.58
2022-10-05T20:42:51.628Z,34.42
2022-10-05T20:45:53.877Z,34.39
2022-10-05T20:48:56.112Z,34.61
2022-10-05T20:51:59.003Z,34.52
2022-10-05T20:55:01.812Z,34.33
2022-10-05T20:58:04.107Z,34.45
2022-10-05T21:01:15.388Z,34.47
2022-10-05T21:04:26.435Z,34.39
2022-10-05T21:07:28.759Z,34.53
2022-10-05T21:10:30.987Z,34.18
2022-10-05T21:13:33.160Z,34.14
2022-10-05T21:16:38.338Z,34.46
2022-10-05T21:19:40.752Z,34.68
2022-10-05T21:22:43.023Z,34.75
2022-10-05T21:25:45.504Z,34.27
2022-10-05T21:28:47.792Z,34.55
2022-10-05T21:31:50.168Z,34.50
2022-10-05T21:34:52.469Z,34.44
2022-10-05T21:37:54.726Z,34.28
2022-10-05T21:40:57.121Z,34.57
2022-10-05T21:43:59.363Z,34.31
2022-10-05T21:47:01.935Z,34.27
2022-10-05T21:50:05.250Z,34.44
2022-10-05T21:53:10.300Z,34.62
2022-10-05T21:56:17.112Z,34.40
2022-10-05T21:59:26.197Z,34.74
2022-10-05T22:02:28.556Z,34.11
2022-10-05T22:05:30.788Z,34.57
2022-10-05T22:08:34.115Z,34.61
2022-10-05T22:11:36.592Z,34.62
2022-10-05T22:14:38.778Z,34.59
2022-10-05T22:17:41.854Z,34.45
2022-10-05T22:20:45.278Z,34.33
2022-10-05T22:23:47.865Z,34.40
2022-10-05T22:26:51.578Z,34.34
2022-10-05T22:29:55.517Z,34.51
2022-10-05T22:32:57.739Z,34.66
2022-10-05T22:36:00.332Z,34.16
2022-10-05T22:39:03.158Z,34.63
2022-10-05T22:42:05.863Z,34.28
2022-10-05T22:45:08.949Z,34.21
2022-10-05T22:48:11.251Z,34.40
2022-10-05T22:51:13.492Z,34.29
2022-10-05T22:54:15.836Z,34.36
2022-10-05T22:57:18.212Z,34.65
2022-10-05T23:00:35.244Z,34.55
2022-10-05T23:03:43.971Z,34.48
2022-10-05T23:06:46.158Z,34.44
2022-10-05T23:09:48.398Z,34.25
2022-10-05T23:13:00.602Z,34.33
2022-10-05T23:16:11.455Z,34.67
2022-10-05T23:19:13.870Z,34.43
2022-10-05T23:22:16.142Z,34.54
2022-10-05T23:25:18.573Z,34.41
2022-10-05T23:28:20.919Z,34.45
2022-10-05T23:31:26.362Z,34.22
2022-10-05T23:34:28.556Z,34.23
2022-10-05T23:37:31.034Z,34.26
2022-10-05T23:40:33.361Z,34.65
2022-10-05T23:43:36.817Z,34.60
2022-10-05T23:46:39.005Z,34.51
2022-10-05T23:49:41.192Z,34.29
2022-10-05T23:52:43.394Z,34.17
2022-10-05T23:55:45.890Z,34.23
2022-10-05T23:58:48.083Z,34.49
